sensor_id;sensor_type;location;lat;lon;timestamp;temperature;humidity
27667;DHT22;15074;50.940;5.282;2022-09-17T00:00:39;10.30;99.90
27667;DHT22;15074;50.940;5.282;2022-09-17T00:03:05;10.30;99.90
27667;DHT22;15074;50.940;5.282;2022-09-17T00:05:32;10.30;99.90
27667;DHT22;15074;50.940;5.282;2022-09-17T00:07:58;10.30;99.90
27667;DHT22;15074;50.940;5.282;2022-09-17T00:10:24;10.30;99.90
27667;DHT22;15074;50.940;5.282;2022-09-17T00:12:50;10.30;99.90
27667;DHT22;15074;50.940;5.282;2022-09-17T00:15:16;10.30;99.90
27667;DHT22;15074;50.940;5.282;2022-09-17T00:17:41;10.40;99.90
27667;DHT22;15074;50.940;5.282;2022-09-17T00:20:08;10.40;99.90
27667;DHT22;15074;50.940;5.282;2022-09-17T00:22:36;10.40;99.90
27667;DHT22;15074;50.940;5.282;2022-09-17T00:25:02;10.40;99.90
27667;DHT22;15074;50.940;5.282;2022-09-17T00:27:29;10.40;99.90
27667;DHT22;15074;50.940;5.282;2022-09-17T00:29:55;10.40;99.90
27667;DHT22;15074;50.940;5.282;2022-09-17T00:32:20;10.40;99.90
27667;DHT22;15074;50.940;5.282;2022-09-17T00:34:46;10.50;99.90
27667;DHT22;15074;50.940;5.282;2022-09-17T00:37:13;10.40;99.90
27667;DHT22;15074;50.940;5.282;2022-09-17T00:39:39;10.40;99.90
27667;DHT22;15074;50.940;5.282;2022-09-17T00:42:05;10.40;99.90
27667;DHT22;15074;50.940;5.282;2022-09-17T00:44:55;10.50;99.90
27667;DHT22;15074;50.940;5.282;2022-09-17T00:47:26;10.50;99.90
27667;DHT22;15074;50.940;5.282;2022-09-17T00:50:18;10.50;99.90
27667;DHT22;15074;50.940;5.282;2022-09-17T00:52:49;10.40;99.90
27667;DHT22;15074;50.940;5.282;2022-09-17T00:55:24;10.30;99.90
27667;DHT22;15074;50.940;5.282;2022-09-17T00:57:53;10.30;99.90
27667;DHT22;15074;50.940;5.282;2022-09-17T01:00:19;10.20;99.90
27667;DHT22;15074;50.940;5.282;2022-09-17T01:02:45;10.30;99.90
27667;DHT22;15074;50.940;5.282;2022-09-17T01:05:12;10.20;99.90
27667;DHT22;15074;50.940;5.282;2022-09-17T01:11:00;10.30;99.90
27667;DHT22;15074;50.940;5.282;2022-09-17T01:13:41;10.40;99.90
27667;DHT22;15074;50.940;5.282;2022-09-17T01:16:25;10.40;99.90
27667;DHT22;15074;50.940;5.282;2022-09-17T01:22:07;10.40;99.90
27667;DHT22;15074;50.940;5.282;2022-09-17T01:27:38;10.60;99.90
27667;DHT22;15074;50.940;5.282;2022-09-17T01:30:37;10.70;99.90
27667;DHT22;15074;50.940;5.282;2022-09-17T01:33:14;10.70;99.90
27667;DHT22;15074;50.940;5.282;2022-09-17T01:38:25;10.70;99.90
27667;DHT22;15074;50.940;5.282;2022-09-17T01:41:09;10.70;99.90
27667;DHT22;15074;50.940;5.282;2022-09-17T01:43:57;10.70;99.90
27667;DHT22;15074;50.940;5.282;2022-09-17T01:46:28;10.60;99.90
27667;DHT22;15074;50.940;5.282;2022-09-17T01:48:58;10.60;99.90
27667;DHT22;15074;50.940;5.282;2022-09-17T01:51:27;10.60;99.90
27667;DHT22;15074;50.940;5.282;2022-09-17T01:54:02;10.40;99.90
27667;DHT22;15074;50.940;5.282;2022-09-17T01:56:38;10.40;99.90
27667;DHT22;15074;50.940;5.282;2022-09-17T01:59:27;10.50;99.90
27667;DHT22;15074;50.940;5.282;2022-09-17T02:01:59;10.60;99.90
27667;DHT22;15074;50.940;5.282;2022-09-17T02:04:29;10.60;99.90
27667;DHT22;15074;50.940;5.282;2022-09-17T02:07:02;10.60;99.90
27667;DHT22;15074;50.940;5.282;2022-09-17T02:13:00;10.70;99.90
27667;DHT22;15074;50.940;5.282;2022-09-17T02:15:39;10.70;99.90
27667;DHT22;15074;50.940;5.282;2022-09-17T02:21:27;10.70;99.90
27667;DHT22;15074;50.940;5.282;2022-09-17T02:26:47;10.70;99.90
27667;DHT22;15074;50.940;5.282;2022-09-17T02:29:35;10.70;99.90
27667;DHT22;15074;50.940;5.282;2022-09-17T02:32:02;10.80;99.90
27667;DHT22;15074;50.940;5.282;2022-09-17T02:34:28;10.80;99.90
27667;DHT22;15074;50.940;5.282;2022-09-17T02:36:54;10.80;99.90
27667;DHT22;15074;50.940;5.282;2022-09-17T02:39:20;10.90;99.90
27667;DHT22;15074;50.940;5.282;2022-09-17T02:47:22;10.70;99.90
27667;DHT22;15074;50.940;5.282;2022-09-17T02:56:11;10.80;99.90
27667;DHT22;15074;50.940;5.282;2022-09-17T02:58:58;10.70;99.90
27667;DHT22;15074;50.940;5.282;2022-09-17T03:01:39;10.70;99.90
27667;DHT22;15074;50.940;5.282;2022-09-17T03:04:08;10.60;99.90
27667;DHT22;15074;50.940;5.282;2022-09-17T03:06:34;10.70;99.90
27667;DHT22;15074;50.940;5.282;2022-09-17T03:09:00;10.70;99.90
27667;DHT22;15074;50.940;5.282;2022-09-17T03:11:26;10.70;99.90
27667;DHT22;15074;50.940;5.282;2022-09-17T03:13:51;10.70;99.90
27667;DHT22;15074;50.940;5.282;2022-09-17T03:16:17;10.70;99.90
27667;DHT22;15074;50.940;5.282;2022-09-17T03:18:43;10.70;99.90
27667;DHT22;15074;50.940;5.282;2022-09-17T03:21:08;10.70;99.90
27667;DHT22;15074;50.940;5.282;2022-09-17T03:23:34;10.70;99.90
27667;DHT22;15074;50.940;5.282;2022-09-17T03:26:00;10.70;99.90
27667;DHT22;15074;50.940;5.282;2022-09-17T03:28:26;10.60;99.90
27667;DHT22;15074;50.940;5.282;2022-09-17T03:30:52;10.70;99.90
27667;DHT22;15074;50.940;5.282;2022-09-17T03:33:18;10.80;99.90
27667;DHT22;15074;50.940;5.282;2022-09-17T03:35:44;10.70;99.90
27667;DHT22;15074;50.940;5.282;2022-09-17T03:38:11;10.70;99.90
27667;DHT22;15074;50.940;5.282;2022-09-17T03:40:36;10.70;99.90
27667;DHT22;15074;50.940;5.282;2022-09-17T03:43:02;10.70;99.90
27667;DHT22;15074;50.940;5.282;2022-09-17T03:45:28;10.70;99.90
27667;DHT22;15074;50.940;5.282;2022-09-17T03:47:53;10.80;99.90
27667;DHT22;15074;50.940;5.282;2022-09-17T03:50:20;10.70;99.90
27667;DHT22;15074;50.940;5.282;2022-09-17T03:52:45;10.70;99.90
27667;DHT22;15074;50.940;5.282;2022-09-17T03:55:11;10.70;99.90
27667;DHT22;15074;50.940;5.282;2022-09-17T03:57:37;10.50;99.90
27667;DHT22;15074;50.940;5.282;2022-09-17T04:00:03;10.50;99.90
27667;DHT22;15074;50.940;5.282;2022-09-17T04:02:29;10.40;99.90
27667;DHT22;15074;50.940;5.282;2022-09-17T04:04:54;10.40;99.90
27667;DHT22;15074;50.940;5.282;2022-09-17T04:07:20;10.30;99.90
27667;DHT22;15074;50.940;5.282;2022-09-17T04:09:46;10.30;99.90
27667;DHT22;15074;50.940;5.282;2022-09-17T04:12:12;10.30;99.90
27667;DHT22;15074;50.940;5.282;2022-09-17T04:14:37;10.20;99.90
27667;DHT22;15074;50.940;5.282;2022-09-17T04:17:03;10.20;99.90
27667;DHT22;15074;50.940;5.282;2022-09-17T04:19:28;10.10;99.90
27667;DHT22;15074;50.940;5.282;2022-09-17T04:21:54;10.20;99.90
27667;DHT22;15074;50.940;5.282;2022-09-17T04:24:20;10.10;99.90
27667;DHT22;15074;50.940;5.282;2022-09-17T04:26:45;10.10;99.90
27667;DHT22;15074;50.940;5.282;2022-09-17T04:29:11;10.00;99.90
27667;DHT22;15074;50.940;5.282;2022-09-17T04:31:36;10.00;99.90
27667;DHT22;15074;50.940;5.282;2022-09-17T04:34:02;10.10;99.90
27667;DHT22;15074;50.940;5.282;2022-09-17T04:36:27;10.10;99.90
27667;DHT22;15074;50.940;5.282;2022-09-17T04:38:53;10.20;99.90
27667;DHT22;15074;50.940;5.282;2022-09-17T04:41:19;10.20;99.90
27667;DHT22;15074;50.940;5.282;2022-09-17T04:43:44;10.30;99.90
27667;DHT22;15074;50.940;5.282;2022-09-17T04:46:10;10.30;99.90
27667;DHT22;15074;50.940;5.282;2022-09-17T04:48:36;10.40;99.90
27667;DHT22;15074;50.940;5.282;2022-09-17T04:51:02;10.40;99.90
27667;DHT22;15074;50.940;5.282;2022-09-17T04:53:27;10.40;99.90
27667;DHT22;15074;50.940;5.282;2022-09-17T04:55:53;10.40;99.90
27667;DHT22;15074;50.940;5.282;2022-09-17T04:58:18;10.20;99.90
27667;DHT22;15074;50.940;5.282;2022-09-17T05:00:44;10.30;99.90
27667;DHT22;15074;50.940;5.282;2022-09-17T05:03:10;10.30;99.90
27667;DHT22;15074;50.940;5.282;2022-09-17T05:05:35;10.30;99.90
27667;DHT22;15074;50.940;5.282;2022-09-17T05:08:01;10.30;99.90
27667;DHT22;15074;50.940;5.282;2022-09-17T05:10:27;10.20;99.90
27667;DHT22;15074;50.940;5.282;2022-09-17T05:12:54;10.20;99.90
27667;DHT22;15074;50.940;5.282;2022-09-17T05:15:21;10.20;99.90
27667;DHT22;15074;50.940;5.282;2022-09-17T05:17:47;10.20;99.90
27667;DHT22;15074;50.940;5.282;2022-09-17T05:20:13;10.20;99.90
27667;DHT22;15074;50.940;5.282;2022-09-17T05:22:44;10.20;99.90
27667;DHT22;15074;50.940;5.282;2022-09-17T05:25:11;10.10;99.90
27667;DHT22;15074;50.940;5.282;2022-09-17T05:27:38;10.20;99.90
27667;DHT22;15074;50.940;5.282;2022-09-17T05:30:05;10.30;99.90
27667;DHT22;15074;50.940;5.282;2022-09-17T05:32:30;10.20;99.90
27667;DHT22;15074;50.940;5.282;2022-09-17T05:34:56;10.20;99.90
27667;DHT22;15074;50.940;5.282;2022-09-17T05:37:22;10.30;99.90
27667;DHT22;15074;50.940;5.282;2022-09-17T05:39:47;10.20;99.90
27667;DHT22;15074;50.940;5.282;2022-09-17T05:42:13;10.30;99.90
27667;DHT22;15074;50.940;5.282;2022-09-17T05:44:38;10.40;99.90
27667;DHT22;15074;50.940;5.282;2022-09-17T05:47:04;10.40;99.90
27667;DHT22;15074;50.940;5.282;2022-09-17T05:49:30;10.40;99.90
27667;DHT22;15074;50.940;5.282;2022-09-17T05:51:55;10.40;99.90
27667;DHT22;15074;50.940;5.282;2022-09-17T05:54:21;10.40;99.90
27667;DHT22;15074;50.940;5.282;2022-09-17T05:56:47;10.50;99.90
27667;DHT22;15074;50.940;5.282;2022-09-17T05:59:13;10.50;99.90
27667;DHT22;15074;50.940;5.282;2022-09-17T06:01:39;10.60;99.90
27667;DHT22;15074;50.940;5.282;2022-09-17T06:04:05;10.70;99.90
27667;DHT22;15074;50.940;5.282;2022-09-17T06:06:31;10.70;99.90
27667;DHT22;15074;50.940;5.282;2022-09-17T06:08:59;10.70;99.90
27667;DHT22;15074;50.940;5.282;2022-09-17T06:11:25;10.90;99.90
27667;DHT22;15074;50.940;5.282;2022-09-17T06:13:55;11.10;99.90
27667;DHT22;15074;50.940;5.282;2022-09-17T06:16:22;11.30;99.90
27667;DHT22;15074;50.940;5.282;2022-09-17T06:18:47;11.50;99.90
27667;DHT22;15074;50.940;5.282;2022-09-17T06:21:15;11.60;99.90
27667;DHT22;15074;50.940;5.282;2022-09-17T06:23:44;11.50;99.90
27667;DHT22;15074;50.940;5.282;2022-09-17T06:26:10;11.50;99.90
27667;DHT22;15074;50.940;5.282;2022-09-17T06:28:35;11.40;99.90
27667;DHT22;15074;50.940;5.282;2022-09-17T06:31:03;11.30;99.90
27667;DHT22;15074;50.940;5.282;2022-09-17T06:33:30;11.20;99.90
27667;DHT22;15074;50.940;5.282;2022-09-17T06:36:01;11.20;99.90
27667;DHT22;15074;50.940;5.282;2022-09-17T06:38:29;11.20;99.90
27667;DHT22;15074;50.940;5.282;2022-09-17T06:40:56;11.20;99.90
27667;DHT22;15074;50.940;5.282;2022-09-17T06:43:23;11.10;99.90
27667;DHT22;15074;50.940;5.282;2022-09-17T06:45:57;11.10;99.90
27667;DHT22;15074;50.940;5.282;2022-09-17T06:48:23;11.20;99.90
27667;DHT22;15074;50.940;5.282;2022-09-17T06:50:53;11.10;99.90
27667;DHT22;15074;50.940;5.282;2022-09-17T06:53:20;11.20;99.90
27667;DHT22;15074;50.940;5.282;2022-09-17T06:55:45;11.30;99.90
27667;DHT22;15074;50.940;5.282;2022-09-17T06:58:11;11.30;99.90
27667;DHT22;15074;50.940;5.282;2022-09-17T07:00:37;11.60;99.90
27667;DHT22;15074;50.940;5.282;2022-09-17T07:03:02;12.10;99.90
27667;DHT22;15074;50.940;5.282;2022-09-17T07:05:29;12.80;99.90
27667;DHT22;15074;50.940;5.282;2022-09-17T07:07:56;13.50;99.90
27667;DHT22;15074;50.940;5.282;2022-09-17T07:10:22;14.70;99.90
27667;DHT22;15074;50.940;5.282;2022-09-17T07:12:48;15.20;99.90
27667;DHT22;15074;50.940;5.282;2022-09-17T07:15:14;15.40;99.90
27667;DHT22;15074;50.940;5.282;2022-09-17T07:17:41;15.60;99.90
27667;DHT22;15074;50.940;5.282;2022-09-17T07:20:07;15.80;99.90
27667;DHT22;15074;50.940;5.282;2022-09-17T07:22:34;15.80;99.90
27667;DHT22;15074;50.940;5.282;2022-09-17T07:25:00;15.80;99.90
27667;DHT22;15074;50.940;5.282;2022-09-17T07:27:31;17.20;99.90
27667;DHT22;15074;50.940;5.282;2022-09-17T07:30:00;17.70;99.90
27667;DHT22;15074;50.940;5.282;2022-09-17T07:32:28;18.60;99.90
27667;DHT22;15074;50.940;5.282;2022-09-17T07:34:54;19.40;99.90
27667;DHT22;15074;50.940;5.282;2022-09-17T07:37:20;19.90;99.90
27667;DHT22;15074;50.940;5.282;2022-09-17T07:39:46;18.90;99.90
27667;DHT22;15074;50.940;5.282;2022-09-17T07:42:11;18.90;99.90
27667;DHT22;15074;50.940;5.282;2022-09-17T07:44:37;18.30;99.90
27667;DHT22;15074;50.940;5.282;2022-09-17T07:47:03;17.80;99.90
27667;DHT22;15074;50.940;5.282;2022-09-17T07:49:29;17.00;99.90
27667;DHT22;15074;50.940;5.282;2022-09-17T07:51:55;16.20;99.90
27667;DHT22;15074;50.940;5.282;2022-09-17T07:54:21;16.00;99.90
27667;DHT22;15074;50.940;5.282;2022-09-17T07:56:47;15.50;99.90
27667;DHT22;15074;50.940;5.282;2022-09-17T07:59:13;15.00;99.90
27667;DHT22;15074;50.940;5.282;2022-09-17T08:01:38;14.70;99.90
27667;DHT22;15074;50.940;5.282;2022-09-17T08:04:05;14.40;99.90
27667;DHT22;15074;50.940;5.282;2022-09-17T08:06:34;14.10;99.90
27667;DHT22;15074;50.940;5.282;2022-09-17T08:09:00;14.20;99.90
27667;DHT22;15074;50.940;5.282;2022-09-17T08:11:29;14.90;99.90
27667;DHT22;15074;50.940;5.282;2022-09-17T08:13:55;15.20;99.90
27667;DHT22;15074;50.940;5.282;2022-09-17T08:16:22;15.50;99.90
27667;DHT22;15074;50.940;5.282;2022-09-17T08:18:54;15.60;99.90
27667;DHT22;15074;50.940;5.282;2022-09-17T08:21:20;15.60;99.90
27667;DHT22;15074;50.940;5.282;2022-09-17T08:23:46;15.40;99.90
27667;DHT22;15074;50.940;5.282;2022-09-17T08:26:20;15.50;99.90
27667;DHT22;15074;50.940;5.282;2022-09-17T08:28:48;15.60;99.90
27667;DHT22;15074;50.940;5.282;2022-09-17T08:31:16;15.10;99.90
27667;DHT22;15074;50.940;5.282;2022-09-17T08:33:43;15.20;99.90
27667;DHT22;15074;50.940;5.282;2022-09-17T08:36:11;16.50;99.90
27667;DHT22;15074;50.940;5.282;2022-09-17T08:38:37;17.90;99.90
27667;DHT22;15074;50.940;5.282;2022-09-17T08:46:20;20.70;99.90
27667;DHT22;15074;50.940;5.282;2022-09-17T08:49:04;21.60;99.90
27667;DHT22;15074;50.940;5.282;2022-09-17T08:57:22;20.40;99.90
27667;DHT22;15074;50.940;5.282;2022-09-17T09:00:15;20.00;99.90
27667;DHT22;15074;50.940;5.282;2022-09-17T09:05:43;20.20;99.90
27667;DHT22;15074;50.940;5.282;2022-09-17T09:08:35;18.90;99.90
27667;DHT22;15074;50.940;5.282;2022-09-17T09:11:05;17.90;99.90
27667;DHT22;15074;50.940;5.282;2022-09-17T09:13:39;17.80;99.90
27667;DHT22;15074;50.940;5.282;2022-09-17T09:16:13;17.60;99.90
27667;DHT22;15074;50.940;5.282;2022-09-17T09:18:40;17.00;99.90
27667;DHT22;15074;50.940;5.282;2022-09-17T09:34:25;17.20;99.90
27667;DHT22;15074;50.940;5.282;2022-09-17T09:39:54;16.80;99.90
27667;DHT22;15074;50.940;5.282;2022-09-17T09:42:32;18.20;99.90
27667;DHT22;15074;50.940;5.282;2022-09-17T09:45:01;20.40;99.90
27667;DHT22;15074;50.940;5.282;2022-09-17T09:50:41;21.40;99.90
27667;DHT22;15074;50.940;5.282;2022-09-17T09:53:25;20.00;99.90
27667;DHT22;15074;50.940;5.282;2022-09-17T09:58:38;18.20;99.90
27667;DHT22;15074;50.940;5.282;2022-09-17T10:01:18;17.90;99.90
27667;DHT22;15074;50.940;5.282;2022-09-17T10:03:45;18.10;99.90
27667;DHT22;15074;50.940;5.282;2022-09-17T10:06:13;17.70;99.90
27667;DHT22;15074;50.940;5.282;2022-09-17T10:11:27;17.20;99.90
27667;DHT22;15074;50.940;5.282;2022-09-17T10:14:22;17.20;99.90
27667;DHT22;15074;50.940;5.282;2022-09-17T10:16:49;17.30;99.90
27667;DHT22;15074;50.940;5.282;2022-09-17T10:19:19;17.40;99.90
27667;DHT22;15074;50.940;5.282;2022-09-17T10:21:50;16.80;99.90
27667;DHT22;15074;50.940;5.282;2022-09-17T10:24:27;15.90;99.90
27667;DHT22;15074;50.940;5.282;2022-09-17T10:27:06;15.20;99.90
27667;DHT22;15074;50.940;5.282;2022-09-17T10:29:36;15.00;99.90
27667;DHT22;15074;50.940;5.282;2022-09-17T10:32:14;15.00;99.90
27667;DHT22;15074;50.940;5.282;2022-09-17T10:34:42;15.10;99.90
27667;DHT22;15074;50.940;5.282;2022-09-17T10:37:47;15.30;99.90
27667;DHT22;15074;50.940;5.282;2022-09-17T10:45:39;15.50;99.90
27667;DHT22;15074;50.940;5.282;2022-09-17T10:48:15;15.60;99.90
27667;DHT22;15074;50.940;5.282;2022-09-17T10:50:51;16.00;99.90
27667;DHT22;15074;50.940;5.282;2022-09-17T10:53:19;16.00;99.90
27667;DHT22;15074;50.940;5.282;2022-09-17T10:55:54;15.90;99.90
27667;DHT22;15074;50.940;5.282;2022-09-17T10:58:49;16.20;99.90
27667;DHT22;15074;50.940;5.282;2022-09-17T11:02:19;16.20;99.90
27667;DHT22;15074;50.940;5.282;2022-09-17T11:04:47;16.60;99.90
27667;DHT22;15074;50.940;5.282;2022-09-17T11:07:32;16.80;99.90
27667;DHT22;15074;50.940;5.282;2022-09-17T11:10:12;16.60;99.90
27667;DHT22;15074;50.940;5.282;2022-09-17T11:12:46;16.80;99.90
27667;DHT22;15074;50.940;5.282;2022-09-17T11:18:39;16.80;99.90
27667;DHT22;15074;50.940;5.282;2022-09-17T11:26:47;17.00;99.90
27667;DHT22;15074;50.940;5.282;2022-09-17T11:34:59;17.50;99.90
27667;DHT22;15074;50.940;5.282;2022-09-17T11:37:31;17.90;99.90
27667;DHT22;15074;50.940;5.282;2022-09-17T11:40:10;18.50;99.90
27667;DHT22;15074;50.940;5.282;2022-09-17T11:42:59;18.30;99.90
27667;DHT22;15074;50.940;5.282;2022-09-17T11:45:33;18.20;99.90
27667;DHT22;15074;50.940;5.282;2022-09-17T11:48:12;17.90;99.90
27667;DHT22;15074;50.940;5.282;2022-09-17T11:56:20;17.40;99.90
27667;DHT22;15074;50.940;5.282;2022-09-17T11:58:53;17.90;99.90
27667;DHT22;15074;50.940;5.282;2022-09-17T12:06:53;19.10;99.90
27667;DHT22;15074;50.940;5.282;2022-09-17T12:09:27;18.60;99.90
27667;DHT22;15074;50.940;5.282;2022-09-17T12:12:15;18.50;99.90
27667;DHT22;15074;50.940;5.282;2022-09-17T12:17:41;17.90;99.90
27667;DHT22;15074;50.940;5.282;2022-09-17T12:20:27;18.10;99.90
27667;DHT22;15074;50.940;5.282;2022-09-17T12:22:55;18.00;99.90
27667;DHT22;15074;50.940;5.282;2022-09-17T12:25:22;18.10;99.90
27667;DHT22;15074;50.940;5.282;2022-09-17T12:28:24;17.70;99.90
27667;DHT22;15074;50.940;5.282;2022-09-17T12:31:05;17.20;99.90
27667;DHT22;15074;50.940;5.282;2022-09-17T12:33:45;16.80;99.90
27667;DHT22;15074;50.940;5.282;2022-09-17T12:36:32;16.50;99.90
27667;DHT22;15074;50.940;5.282;2022-09-17T12:39:17;16.10;99.90
27667;DHT22;15074;50.940;5.282;2022-09-17T12:42:02;16.00;99.90
27667;DHT22;15074;50.940;5.282;2022-09-17T12:53:24;18.00;99.90
27667;DHT22;15074;50.940;5.282;2022-09-17T12:56:06;18.50;99.90
27667;DHT22;15074;50.940;5.282;2022-09-17T12:59:14;19.40;99.90
27667;DHT22;15074;50.940;5.282;2022-09-17T13:01:49;19.70;99.90
27667;DHT22;15074;50.940;5.282;2022-09-17T13:04:45;20.20;99.90
27667;DHT22;15074;50.940;5.282;2022-09-17T13:07:33;20.00;99.90
27667;DHT22;15074;50.940;5.282;2022-09-17T13:15:25;20.00;99.90
27667;DHT22;15074;50.940;5.282;2022-09-17T13:17:57;20.70;99.90
27667;DHT22;15074;50.940;5.282;2022-09-17T13:20:37;20.30;99.90
27667;DHT22;15074;50.940;5.282;2022-09-17T13:23:05;20.20;99.90
27667;DHT22;15074;50.940;5.282;2022-09-17T13:25:31;19.80;99.90
27667;DHT22;15074;50.940;5.282;2022-09-17T13:28:08;19.90;99.90
27667;DHT22;15074;50.940;5.282;2022-09-17T13:30:54;20.40;99.90
27667;DHT22;15074;50.940;5.282;2022-09-17T13:39:00;20.60;99.90
27667;DHT22;15074;50.940;5.282;2022-09-17T13:41:26;20.20;99.90
27667;DHT22;15074;50.940;5.282;2022-09-17T13:43:53;20.10;99.90
27667;DHT22;15074;50.940;5.282;2022-09-17T13:46:37;19.60;99.90
27667;DHT22;15074;50.940;5.282;2022-09-17T13:49:15;18.80;99.90
27667;DHT22;15074;50.940;5.282;2022-09-17T13:51:43;18.30;99.90
27667;DHT22;15074;50.940;5.282;2022-09-17T13:54:10;17.70;99.90
27667;DHT22;15074;50.940;5.282;2022-09-17T13:56:49;16.60;99.90
27667;DHT22;15074;50.940;5.282;2022-09-17T13:59:27;15.50;99.90
27667;DHT22;15074;50.940;5.282;2022-09-17T14:02:27;15.00;99.90
27667;DHT22;15074;50.940;5.282;2022-09-17T14:04:54;15.50;99.90
27667;DHT22;15074;50.940;5.282;2022-09-17T14:15:53;17.00;99.90
27667;DHT22;15074;50.940;5.282;2022-09-17T14:21:26;17.60;99.90
27667;DHT22;15074;50.940;5.282;2022-09-17T14:23:54;18.00;99.90
27667;DHT22;15074;50.940;5.282;2022-09-17T14:31:45;18.00;99.90
27667;DHT22;15074;50.940;5.282;2022-09-17T14:34:20;17.60;99.90
27667;DHT22;15074;50.940;5.282;2022-09-17T14:36:47;17.40;99.90
27667;DHT22;15074;50.940;5.282;2022-09-17T14:39:24;16.90;99.90
27667;DHT22;15074;50.940;5.282;2022-09-17T14:41:52;16.60;99.90
27667;DHT22;15074;50.940;5.282;2022-09-17T14:44:21;16.50;99.90
27667;DHT22;15074;50.940;5.282;2022-09-17T14:46:57;16.40;99.90
27667;DHT22;15074;50.940;5.282;2022-09-17T14:49:26;16.20;99.90
27667;DHT22;15074;50.940;5.282;2022-09-17T14:51:56;15.90;99.90
27667;DHT22;15074;50.940;5.282;2022-09-17T14:54:25;15.90;99.90
27667;DHT22;15074;50.940;5.282;2022-09-17T14:59:40;16.20;99.90
27667;DHT22;15074;50.940;5.282;2022-09-17T15:04:58;16.10;99.90
27667;DHT22;15074;50.940;5.282;2022-09-17T15:07:25;16.00;99.90
27667;DHT22;15074;50.940;5.282;2022-09-17T15:09:50;16.00;99.90
27667;DHT22;15074;50.940;5.282;2022-09-17T15:12:23;16.10;99.90
27667;DHT22;15074;50.940;5.282;2022-09-17T15:14:49;16.40;99.90
27667;DHT22;15074;50.940;5.282;2022-09-17T15:17:17;16.30;99.90
27667;DHT22;15074;50.940;5.282;2022-09-17T15:19:49;15.90;99.90
27667;DHT22;15074;50.940;5.282;2022-09-17T15:22:21;15.80;99.90
27667;DHT22;15074;50.940;5.282;2022-09-17T15:24:55;15.80;99.90
27667;DHT22;15074;50.940;5.282;2022-09-17T15:27:49;15.70;99.90
27667;DHT22;15074;50.940;5.282;2022-09-17T15:30:18;15.70;99.90
27667;DHT22;15074;50.940;5.282;2022-09-17T15:37:47;15.70;99.90
27667;DHT22;15074;50.940;5.282;2022-09-17T15:40:29;15.70;99.90
27667;DHT22;15074;50.940;5.282;2022-09-17T15:45:31;15.60;99.90
27667;DHT22;15074;50.940;5.282;2022-09-17T15:48:02;15.60;99.90
27667;DHT22;15074;50.940;5.282;2022-09-17T15:53:19;15.50;99.90
27667;DHT22;15074;50.940;5.282;2022-09-17T15:58:33;15.40;99.90
27667;DHT22;15074;50.940;5.282;2022-09-17T16:11:13;15.10;99.90
27667;DHT22;15074;50.940;5.282;2022-09-17T16:13:38;15.10;99.90
27667;DHT22;15074;50.940;5.282;2022-09-17T16:16:04;14.90;99.90
27667;DHT22;15074;50.940;5.282;2022-09-17T16:18:30;15.00;99.90
27667;DHT22;15074;50.940;5.282;2022-09-17T16:20:56;15.10;99.90
27667;DHT22;15074;50.940;5.282;2022-09-17T16:23:22;15.10;99.90
27667;DHT22;15074;50.940;5.282;2022-09-17T16:25:48;15.10;99.90
27667;DHT22;15074;50.940;5.282;2022-09-17T16:28:17;15.10;99.90
27667;DHT22;15074;50.940;5.282;2022-09-17T16:30:45;15.10;99.90
27667;DHT22;15074;50.940;5.282;2022-09-17T16:33:13;15.10;99.90
27667;DHT22;15074;50.940;5.282;2022-09-17T16:35:39;15.10;99.90
27667;DHT22;15074;50.940;5.282;2022-09-17T16:38:05;15.00;99.90
27667;DHT22;15074;50.940;5.282;2022-09-17T16:40:31;14.90;99.90
27667;DHT22;15074;50.940;5.282;2022-09-17T16:43:01;14.80;99.90
27667;DHT22;15074;50.940;5.282;2022-09-17T16:45:28;14.60;99.90
27667;DHT22;15074;50.940;5.282;2022-09-17T16:47:54;14.60;99.90
27667;DHT22;15074;50.940;5.282;2022-09-17T16:50:20;14.40;99.90
27667;DHT22;15074;50.940;5.282;2022-09-17T16:52:45;14.40;99.90
27667;DHT22;15074;50.940;5.282;2022-09-17T16:55:13;14.40;99.90
27667;DHT22;15074;50.940;5.282;2022-09-17T16:57:40;14.40;99.90
27667;DHT22;15074;50.940;5.282;2022-09-17T17:00:08;14.30;99.90
27667;DHT22;15074;50.940;5.282;2022-09-17T17:02:38;14.30;99.90
27667;DHT22;15074;50.940;5.282;2022-09-17T17:05:04;14.30;99.90
27667;DHT22;15074;50.940;5.282;2022-09-17T17:07:30;14.30;99.90
27667;DHT22;15074;50.940;5.282;2022-09-17T17:09:58;14.40;99.90
27667;DHT22;15074;50.940;5.282;2022-09-17T17:12:25;14.30;99.90
27667;DHT22;15074;50.940;5.282;2022-09-17T17:14:51;14.40;99.90
27667;DHT22;15074;50.940;5.282;2022-09-17T17:17:18;14.30;99.90
27667;DHT22;15074;50.940;5.282;2022-09-17T17:19:44;14.40;99.90
27667;DHT22;15074;50.940;5.282;2022-09-17T17:22:13;14.20;99.90
27667;DHT22;15074;50.940;5.282;2022-09-17T17:24:39;14.20;99.90
27667;DHT22;15074;50.940;5.282;2022-09-17T17:27:05;14.10;99.90
27667;DHT22;15074;50.940;5.282;2022-09-17T17:29:33;14.00;99.90
27667;DHT22;15074;50.940;5.282;2022-09-17T17:32:00;14.00;99.90
27667;DHT22;15074;50.940;5.282;2022-09-17T17:34:25;13.90;99.90
27667;DHT22;15074;50.940;5.282;2022-09-17T17:36:51;13.90;99.90
27667;DHT22;15074;50.940;5.282;2022-09-17T17:39:17;13.90;99.90
27667;DHT22;15074;50.940;5.282;2022-09-17T17:41:42;13.80;99.90
27667;DHT22;15074;50.940;5.282;2022-09-17T17:44:08;13.80;99.90
27667;DHT22;15074;50.940;5.282;2022-09-17T17:46:40;13.80;99.90
27667;DHT22;15074;50.940;5.282;2022-09-17T17:49:06;13.80;99.90
27667;DHT22;15074;50.940;5.282;2022-09-17T17:51:32;13.70;99.90
27667;DHT22;15074;50.940;5.282;2022-09-17T17:53:58;13.60;99.90
27667;DHT22;15074;50.940;5.282;2022-09-17T17:56:23;13.50;99.90
27667;DHT22;15074;50.940;5.282;2022-09-17T17:58:56;13.50;99.90
27667;DHT22;15074;50.940;5.282;2022-09-17T18:01:28;13.50;99.90
27667;DHT22;15074;50.940;5.282;2022-09-17T18:03:58;13.50;99.90
27667;DHT22;15074;50.940;5.282;2022-09-17T18:06:24;13.50;99.90
27667;DHT22;15074;50.940;5.282;2022-09-17T18:08:51;13.60;99.90
27667;DHT22;15074;50.940;5.282;2022-09-17T18:11:17;13.60;99.90
27667;DHT22;15074;50.940;5.282;2022-09-17T18:13:43;13.60;99.90
27667;DHT22;15074;50.940;5.282;2022-09-17T18:16:13;13.50;99.90
27667;DHT22;15074;50.940;5.282;2022-09-17T18:18:41;13.40;99.90
27667;DHT22;15074;50.940;5.282;2022-09-17T18:21:08;13.40;99.90
27667;DHT22;15074;50.940;5.282;2022-09-17T18:23:36;13.30;99.90
27667;DHT22;15074;50.940;5.282;2022-09-17T18:26:03;13.10;99.90
27667;DHT22;15074;50.940;5.282;2022-09-17T18:28:30;12.90;99.90
27667;DHT22;15074;50.940;5.282;2022-09-17T18:30:56;12.70;99.90
27667;DHT22;15074;50.940;5.282;2022-09-17T18:33:24;12.60;99.90
27667;DHT22;15074;50.940;5.282;2022-09-17T18:35:51;12.60;99.90
27667;DHT22;15074;50.940;5.282;2022-09-17T18:38:21;12.40;99.90
27667;DHT22;15074;50.940;5.282;2022-09-17T18:40:47;12.40;99.90